createdAt,value
2019-05-23T00:02:16.579Z,12.81
2019-05-23T00:05:07.119Z,12.81
2019-05-23T00:07:57.418Z,12.80
2019-05-23T00:10:47.459Z,12.78
2019-05-23T00:13:37.603Z,12.77
2019-05-23T00:16:11.510Z,12.78
2019-05-23T00:18:43.836Z,12.78
2019-05-23T00:21:16.091Z,12.77
2019-05-23T00:23:48.307Z,12.76
2019-05-23T00:26:20.592Z,12.76
2019-05-23T00:29:08.996Z,12.75
2019-05-23T00:31:28.089Z,12.73
2019-05-23T00:34:00.361Z,12.72
2019-05-23T00:36:32.591Z,12.72
2019-05-23T00:39:04.884Z,12.72
2019-05-23T00:41:37.267Z,12.73
2019-05-23T00:44:09.539Z,12.70
2019-05-23T00:46:41.757Z,12.69
2019-05-23T00:49:15.173Z,12.69
2019-05-23T00:51:47.407Z,12.67
2019-05-23T00:54:19.596Z,12.64
2019-05-23T00:56:51.834Z,12.64
2019-05-23T00:59:27.594Z,12.62
2019-05-23T01:01:58.042Z,12.62
2019-05-23T01:04:30.267Z,12.63
2019-05-23T01:07:02.643Z,12.60
2019-05-23T01:09:36.142Z,12.59
2019-05-23T01:12:08.388Z,12.59
2019-05-23T01:14:40.627Z,12.57
2019-05-23T01:17:12.860Z,12.57
2019-05-23T01:19:45.112Z,12.54
2019-05-23T01:22:17.337Z,12.53
2019-05-23T01:24:49.612Z,12.51
2019-05-23T01:27:21.823Z,12.50
2019-05-23T01:29:54.048Z,12.47
2019-05-23T01:32:26.283Z,12.45
2019-05-23T01:34:58.509Z,12.45
2019-05-23T01:37:32.751Z,12.42
2019-05-23T01:40:05.010Z,12.39
2019-05-23T01:42:37.255Z,12.40
2019-05-23T01:45:09.470Z,12.39
2019-05-23T01:47:41.769Z,12.35
2019-05-23T01:50:14.105Z,12.34
2019-05-23T01:52:46.191Z,12.32
2019-05-23T01:55:18.423Z,12.30
2019-05-23T01:57:50.699Z,12.28
2019-05-23T02:00:22.994Z,12.27
2019-05-23T02:02:55.271Z,12.25
2019-05-23T02:05:27.501Z,12.24
2019-05-23T02:07:59.744Z,12.21
2019-05-23T02:10:31.964Z,12.19
2019-05-23T02:13:04.219Z,12.17
2019-05-23T02:15:36.459Z,12.16
2019-05-23T02:18:08.677Z,12.13
2019-05-23T02:20:40.925Z,12.12
2019-05-23T02:23:13.181Z,12.11
2019-05-23T02:25:45.485Z,12.09
2019-05-23T02:28:17.742Z,12.10
2019-05-23T02:30:49.979Z,12.09
2019-05-23T02:33:22.233Z,12.08
2019-05-23T02:35:54.457Z,12.09
2019-05-23T02:38:26.734Z,12.06
2019-05-23T02:41:00.031Z,12.06
2019-05-23T02:43:32.238Z,12.05
2019-05-23T02:46:04.488Z,12.05
2019-05-23T02:48:36.709Z,12.04
2019-05-23T02:51:08.961Z,12.03
2019-05-23T02:53:41.285Z,12.01
2019-05-23T02:56:13.501Z,12.00
2019-05-23T02:58:45.783Z,11.97
2019-05-23T03:01:18.098Z,11.98
2019-05-23T03:03:50.323Z,11.93
2019-05-23T03:06:22.551Z,11.91
2019-05-23T03:08:54.849Z,11.89
2019-05-23T03:11:27.098Z,11.88
2019-05-23T03:13:59.391Z,11.87
2019-05-23T03:16:32.577Z,11.87
2019-05-23T03:19:05.012Z,11.84
2019-05-23T03:21:37.213Z,11.84
2019-05-23T03:24:09.490Z,11.86
2019-05-23T03:26:41.731Z,11.86
2019-05-23T03:29:13.954Z,11.84
2019-05-23T03:31:46.213Z,11.83
2019-05-23T03:34:19.148Z,11.82
2019-05-23T03:36:51.352Z,11.84
2019-05-23T03:39:23.617Z,11.86
2019-05-23T03:41:55.863Z,11.85
2019-05-23T03:44:28.077Z,11.85
2019-05-23T03:47:00.328Z,11.87
2019-05-23T03:49:32.552Z,11.83
2019-05-23T03:52:04.761Z,11.86
2019-05-23T03:54:36.996Z,11.87
2019-05-23T03:57:09.184Z,11.89
2019-05-23T03:59:41.406Z,11.89
2019-05-23T04:02:15.958Z,11.90
2019-05-23T04:04:48.134Z,11.92
2019-05-23T04:07:20.406Z,11.93
2019-05-23T04:09:52.625Z,11.97
2019-05-23T04:12:24.883Z,11.96
2019-05-23T04:14:59.156Z,11.97
2019-05-23T04:17:31.406Z,11.97
2019-05-23T04:20:03.609Z,12.00
2019-05-23T04:22:35.876Z,12.03
2019-05-23T04:25:08.099Z,12.06
2019-05-23T04:27:40.315Z,12.10
2019-05-23T04:30:12.616Z,12.12
2019-05-23T04:32:44.861Z,12.14
2019-05-23T04:35:17.103Z,12.18
2019-05-23T04:37:50.376Z,12.22
2019-05-23T04:40:22.625Z,12.27
2019-05-23T04:42:54.828Z,12.31
2019-05-23T04:45:27.070Z,12.36
2019-05-23T04:47:59.331Z,12.40
2019-05-23T04:50:31.533Z,12.45
2019-05-23T04:53:03.753Z,12.51
2019-05-23T04:55:35.794Z,12.55
2019-05-23T04:58:08.059Z,12.63
2019-05-23T05:00:40.260Z,12.66
2019-05-23T05:03:12.474Z,12.80
2019-05-23T05:05:46.420Z,12.89
2019-05-23T05:08:20.008Z,12.93
2019-05-23T05:10:52.275Z,12.96
2019-05-23T05:13:24.565Z,13.00
2019-05-23T05:15:56.786Z,13.09
2019-05-23T05:18:29.024Z,13.17
2019-05-23T05:21:02.510Z,13.21
2019-05-23T05:23:34.742Z,13.28
2019-05-23T05:26:07.018Z,13.33
2019-05-23T05:28:39.311Z,13.35
2019-05-23T05:31:11.503Z,13.45
2019-05-23T05:33:43.766Z,13.50
2019-05-23T05:36:16.000Z,13.59
2019-05-23T05:38:48.277Z,13.66
2019-05-23T05:41:20.551Z,13.70
2019-05-23T05:43:52.807Z,13.74
2019-05-23T05:46:25.072Z,13.78
2019-05-23T05:48:57.346Z,13.82
2019-05-23T05:51:29.753Z,13.90
2019-05-23T05:54:02.044Z,13.97
2019-05-23T05:56:34.282Z,13.99
2019-05-23T05:59:07.959Z,14.05
2019-05-23T06:01:40.180Z,14.17
2019-05-23T06:04:12.469Z,14.26
2019-05-23T06:06:44.673Z,14.36
2019-05-23T06:09:16.961Z,14.46
2019-05-23T06:11:49.264Z,14.55
2019-05-23T06:14:21.480Z,14.64
2019-05-23T06:16:53.564Z,14.72
2019-05-23T06:19:25.827Z,14.80
2019-05-23T06:21:58.061Z,14.89
2019-05-23T06:24:44.544Z,14.95
2019-05-23T06:27:05.367Z,15.06
2019-05-23T06:29:37.610Z,15.18
2019-05-23T06:32:10.016Z,15.29
2019-05-23T06:34:42.277Z,15.36
2019-05-23T06:37:14.610Z,15.43
2019-05-23T06:39:46.819Z,15.52
2019-05-23T06:42:18.879Z,15.56
2019-05-23T06:44:51.160Z,15.69
2019-05-23T06:47:23.439Z,15.78
2019-05-23T06:49:55.917Z,15.92
2019-05-23T06:52:28.145Z,16.04
2019-05-23T06:55:00.424Z,16.17
2019-05-23T06:57:32.956Z,16.23
2019-05-23T07:00:05.232Z,16.32
2019-05-23T07:02:38.511Z,16.39
2019-05-23T07:05:10.940Z,16.48
2019-05-23T07:07:43.282Z,16.58
2019-05-23T07:10:15.789Z,16.70
2019-05-23T07:12:47.996Z,16.82
2019-05-23T07:15:20.257Z,16.88
2019-05-23T07:17:53.536Z,16.94
2019-05-23T07:20:25.824Z,17.01
2019-05-23T07:22:58.058Z,17.06
2019-05-23T07:25:30.392Z,17.12
2019-05-23T07:28:03.725Z,17.22
2019-05-23T07:30:35.958Z,17.34
2019-05-23T07:33:08.183Z,17.46
2019-05-23T07:35:40.462Z,17.55
2019-05-23T07:38:12.608Z,17.62
2019-05-23T07:40:44.896Z,17.67
2019-05-23T07:43:17.164Z,17.74
2019-05-23T07:45:49.399Z,17.82
2019-05-23T07:48:21.639Z,17.92
2019-05-23T07:50:53.917Z,18.08
2019-05-23T07:53:26.135Z,18.19
2019-05-23T07:55:58.471Z,18.29
2019-05-23T07:58:30.706Z,18.34
2019-05-23T08:01:02.980Z,18.40
2019-05-23T08:03:35.150Z,18.45
2019-05-23T08:06:07.544Z,18.48
2019-05-23T08:08:39.725Z,18.51
2019-05-23T08:11:12.071Z,18.63
2019-05-23T08:13:44.455Z,18.65
2019-05-23T08:16:16.668Z,18.72
2019-05-23T08:18:48.966Z,18.76
2019-05-23T08:21:21.258Z,18.83
2019-05-23T08:23:53.481Z,18.93
2019-05-23T08:26:25.687Z,18.98
2019-05-23T08:29:24.094Z,19.05
2019-05-23T08:31:32.057Z,19.08
2019-05-23T08:34:04.280Z,19.21
2019-05-23T08:36:36.503Z,19.15
2019-05-23T08:39:08.790Z,19.27
2019-05-23T08:41:41.168Z,19.37
2019-05-23T08:44:13.445Z,19.49
2019-05-23T08:46:45.804Z,19.58
2019-05-23T08:49:18.029Z,19.62
2019-05-23T08:51:50.243Z,19.63
2019-05-23T08:54:22.538Z,19.67
2019-05-23T08:56:55.057Z,19.76
2019-05-23T08:59:27.310Z,19.82
2019-05-23T09:01:59.515Z,19.85
2019-05-23T09:04:33.239Z,19.91
2019-05-23T09:07:05.445Z,20.04
2019-05-23T09:09:37.931Z,20.14
2019-05-23T09:12:12.401Z,20.21
2019-05-23T09:14:44.688Z,20.35
2019-05-23T09:17:16.893Z,20.45
2019-05-23T09:19:49.105Z,20.55
2019-05-23T09:22:21.363Z,20.61
2019-05-23T09:24:53.557Z,20.70
2019-05-23T09:27:25.818Z,20.78
2019-05-23T09:29:58.287Z,20.85
2019-05-23T09:32:30.492Z,21.02
2019-05-23T09:35:19.234Z,21.11
2019-05-23T09:37:36.732Z,21.08
2019-05-23T09:40:11.316Z,20.97
2019-05-23T09:42:43.538Z,20.91
2019-05-23T09:45:15.968Z,20.94
2019-05-23T09:47:51.047Z,21.14
2019-05-23T09:50:22.173Z,21.31
2019-05-23T09:52:54.204Z,21.38
2019-05-23T09:55:26.406Z,21.40
2019-05-23T09:57:58.719Z,21.43
2019-05-23T10:00:31.228Z,21.39
2019-05-23T10:03:03.670Z,21.40
2019-05-23T10:05:43.426Z,21.51
2019-05-23T10:08:10.109Z,21.61
2019-05-23T10:10:42.390Z,21.53
2019-05-23T10:13:14.596Z,21.53
2019-05-23T10:15:46.980Z,21.59
2019-05-23T10:18:19.213Z,21.58
2019-05-23T10:20:51.460Z,21.65
2019-05-23T10:23:23.728Z,21.75
2019-05-23T10:25:55.921Z,21.84
2019-05-23T10:28:30.428Z,21.96
2019-05-23T10:31:02.672Z,22.04
2019-05-23T10:33:35.034Z,22.13
2019-05-23T10:36:07.280Z,22.19
2019-05-23T10:38:39.546Z,22.22
2019-05-23T10:41:12.145Z,22.24
2019-05-23T10:43:44.409Z,22.28
2019-05-23T10:46:16.631Z,22.49
2019-05-23T10:48:48.851Z,22.62
2019-05-23T10:51:21.054Z,22.76
2019-05-23T10:53:53.312Z,22.76
2019-05-23T10:56:25.514Z,22.75
2019-05-23T10:58:57.767Z,22.78
2019-05-23T11:01:30.120Z,22.86
2019-05-23T11:04:02.369Z,22.97
2019-05-23T11:06:34.566Z,22.94
2019-05-23T11:09:06.828Z,22.73
2019-05-23T11:11:39.086Z,22.66
2019-05-23T11:14:11.296Z,22.82
2019-05-23T11:16:44.615Z,22.88
2019-05-23T11:19:16.823Z,22.88
2019-05-23T11:21:49.089Z,22.96
2019-05-23T11:24:21.300Z,22.91
2019-05-23T11:26:53.498Z,22.92
2019-05-23T11:29:27.384Z,23.16
2019-05-23T11:31:59.932Z,23.33
2019-05-23T11:34:32.038Z,23.69
2019-05-23T11:37:04.266Z,23.95
2019-05-23T11:39:42.253Z,24.11
2019-05-23T11:42:10.469Z,24.28
2019-05-23T11:44:42.630Z,24.37
2019-05-23T11:47:14.854Z,24.47
2019-05-23T11:49:47.142Z,24.43
2019-05-23T11:52:19.401Z,24.96
2019-05-23T11:54:51.609Z,26.60
2019-05-23T11:57:23.859Z,27.99
2019-05-23T11:59:56.074Z,29.66
2019-05-23T12:02:28.945Z,30.91
2019-05-23T12:05:01.740Z,31.42
2019-05-23T12:07:35.770Z,31.12
2019-05-23T12:10:08.570Z,30.96
2019-05-23T12:12:41.416Z,31.74
2019-05-23T12:15:14.232Z,32.08
2019-05-23T12:17:47.060Z,32.57
2019-05-23T12:20:20.103Z,32.68
2019-05-23T12:22:52.967Z,32.81
2019-05-23T12:25:26.012Z,32.99
2019-05-23T12:27:58.895Z,33.94
2019-05-23T12:30:31.719Z,34.91
2019-05-23T12:33:04.523Z,35.16
2019-05-23T12:35:37.396Z,35.40
2019-05-23T12:38:10.194Z,36.06
2019-05-23T12:40:44.101Z,36.06
2019-05-23T12:43:16.969Z,35.58
2019-05-23T12:45:49.723Z,35.50
2019-05-23T12:48:22.884Z,35.38
2019-05-23T12:50:55.703Z,35.74
2019-05-23T12:53:28.607Z,35.69
2019-05-23T12:56:01.418Z,35.85
2019-05-23T12:58:34.379Z,35.37
2019-05-23T13:01:07.328Z,34.66
2019-05-23T13:03:40.166Z,34.82
2019-05-23T13:06:13.075Z,35.20
2019-05-23T13:08:46.012Z,35.04
2019-05-23T13:11:18.870Z,35.12
2019-05-23T13:13:51.690Z,35.12
2019-05-23T13:16:24.489Z,35.39
2019-05-23T13:18:57.313Z,34.96
2019-05-23T13:21:30.156Z,34.47
2019-05-23T13:24:02.930Z,34.73
2019-05-23T13:26:35.745Z,35.33
2019-05-23T13:29:08.557Z,36.20
2019-05-23T13:31:41.369Z,37.20
2019-05-23T13:34:14.200Z,36.66
2019-05-23T13:36:47.096Z,37.01
2019-05-23T13:39:19.964Z,37.41
2019-05-23T13:41:52.643Z,37.88
2019-05-23T13:44:34.070Z,38.28
2019-05-23T13:47:00.128Z,38.28
2019-05-23T13:49:32.968Z,37.55
2019-05-23T13:52:05.785Z,38.11
2019-05-23T13:54:38.598Z,36.60
2019-05-23T13:57:11.636Z,36.60
2019-05-23T13:59:44.694Z,35.85
2019-05-23T14:02:17.742Z,36.42
2019-05-23T14:04:50.668Z,35.23
2019-05-23T14:07:23.496Z,32.89
2019-05-23T14:09:56.297Z,30.77
2019-05-23T14:12:29.156Z,28.79
2019-05-23T14:15:01.366Z,27.18
2019-05-23T14:17:33.648Z,26.11
2019-05-23T14:20:05.923Z,25.56
2019-05-23T14:22:38.212Z,25.17
2019-05-23T14:25:10.519Z,25.00
2019-05-23T14:27:44.029Z,24.89
2019-05-23T14:30:16.419Z,24.76
2019-05-23T14:32:48.850Z,24.65
2019-05-23T14:35:21.101Z,24.42
2019-05-23T14:37:53.335Z,24.28
2019-05-23T14:40:25.544Z,24.15
2019-05-23T14:42:58.096Z,23.93
2019-05-23T14:45:30.307Z,23.92
2019-05-23T14:48:02.523Z,24.02
2019-05-23T14:50:35.104Z,23.67
2019-05-23T14:53:07.371Z,23.36
2019-05-23T14:55:39.789Z,23.26
2019-05-23T14:58:12.017Z,23.20
2019-05-23T15:00:44.290Z,23.25
2019-05-23T15:03:16.649Z,23.34
2019-05-23T15:05:48.866Z,23.43
2019-05-23T15:08:21.140Z,23.37
2019-05-23T15:10:53.357Z,23.22
2019-05-23T15:13:25.713Z,23.15
2019-05-23T15:15:57.958Z,23.05
2019-05-23T15:18:30.214Z,23.05
2019-05-23T15:21:02.504Z,23.14
2019-05-23T15:23:34.878Z,23.18
2019-05-23T15:26:21.739Z,23.26
2019-05-23T15:28:41.107Z,23.35
2019-05-23T15:31:13.753Z,23.33
2019-05-23T15:33:46.050Z,23.16
2019-05-23T15:36:18.430Z,23.07
2019-05-23T15:39:07.533Z,23.17
2019-05-23T15:41:24.838Z,23.37
2019-05-23T15:43:57.471Z,23.68
2019-05-23T15:46:29.662Z,23.82
2019-05-23T15:49:01.877Z,23.57
2019-05-23T15:51:34.128Z,23.34
2019-05-23T15:54:06.668Z,23.31
2019-05-23T15:56:39.005Z,23.33
2019-05-23T15:59:11.222Z,23.34
2019-05-23T16:01:43.488Z,23.28
2019-05-23T16:04:16.735Z,23.32
2019-05-23T16:06:50.162Z,23.58
2019-05-23T16:09:29.334Z,23.66
2019-05-23T16:11:56.345Z,23.72
2019-05-23T16:14:28.630Z,23.80
2019-05-23T16:17:00.755Z,24.17
2019-05-23T16:19:32.964Z,24.87
2019-05-23T16:22:05.201Z,24.73
2019-05-23T16:24:37.409Z,24.64
2019-05-23T16:27:09.669Z,24.76
2019-05-23T16:29:42.089Z,24.62
2019-05-23T16:32:14.286Z,24.51
2019-05-23T16:34:46.499Z,24.28
2019-05-23T16:37:18.703Z,24.18
2019-05-23T16:39:50.901Z,24.30
2019-05-23T16:42:23.167Z,25.01
2019-05-23T16:44:55.434Z,25.81
2019-05-23T16:47:27.650Z,27.37
2019-05-23T16:50:00.996Z,27.99
2019-05-23T16:52:33.259Z,28.37
2019-05-23T16:55:06.058Z,28.89
2019-05-23T16:57:38.973Z,30.32
2019-05-23T17:00:11.855Z,30.38
2019-05-23T17:02:44.701Z,29.80
2019-05-23T17:05:17.521Z,29.62
2019-05-23T17:07:50.358Z,30.07
2019-05-23T17:10:23.209Z,31.76
2019-05-23T17:12:56.130Z,32.48
2019-05-23T17:15:28.974Z,33.33
2019-05-23T17:18:03.364Z,33.77
2019-05-23T17:20:37.285Z,33.12
2019-05-23T17:23:11.393Z,33.47
2019-05-23T17:25:45.377Z,34.11
2019-05-23T17:28:18.181Z,34.25
2019-05-23T17:30:52.597Z,34.70
2019-05-23T17:33:25.437Z,34.74
2019-05-23T17:35:58.404Z,34.94
2019-05-23T17:38:32.936Z,34.96
2019-05-23T17:41:05.842Z,34.09
2019-05-23T17:43:38.647Z,33.12
2019-05-23T17:46:11.458Z,32.27
2019-05-23T17:48:44.309Z,30.92
2019-05-23T17:51:17.237Z,29.34
2019-05-23T17:53:49.444Z,28.04
2019-05-23T17:56:21.773Z,27.03
2019-05-23T17:58:54.002Z,26.21
2019-05-23T18:01:26.307Z,25.72
2019-05-23T18:03:58.536Z,25.09
2019-05-23T18:06:30.805Z,24.49
2019-05-23T18:09:03.049Z,23.99
2019-05-23T18:11:35.433Z,23.57
2019-05-23T18:14:07.697Z,23.17
2019-05-23T18:16:40.207Z,22.87
2019-05-23T18:19:12.443Z,22.65
2019-05-23T18:21:44.655Z,22.42
2019-05-23T18:24:16.890Z,22.20
2019-05-23T18:26:49.271Z,22.20
2019-05-23T18:29:21.529Z,22.06
2019-05-23T18:31:53.752Z,21.96
2019-05-23T18:34:26.084Z,21.85
2019-05-23T18:36:58.523Z,21.67
2019-05-23T18:39:30.952Z,21.67
2019-05-23T18:42:03.255Z,21.58
2019-05-23T18:44:35.532Z,21.49
2019-05-23T18:47:07.728Z,21.38
2019-05-23T18:49:40.145Z,21.30
2019-05-23T18:52:12.479Z,21.20
2019-05-23T18:54:44.891Z,21.11
2019-05-23T18:57:18.413Z,21.04
2019-05-23T18:59:50.655Z,20.96
2019-05-23T19:02:24.938Z,20.88
2019-05-23T19:04:57.267Z,20.80
2019-05-23T19:07:29.501Z,20.70
2019-05-23T19:10:01.738Z,20.61
2019-05-23T19:12:34.166Z,20.51
2019-05-23T19:15:06.450Z,20.42
2019-05-23T19:17:39.778Z,20.31
2019-05-23T19:20:12.025Z,20.21
2019-05-23T19:22:44.355Z,20.12
2019-05-23T19:25:16.830Z,20.01
2019-05-23T19:27:49.040Z,19.89
2019-05-23T19:30:22.109Z,19.80
2019-05-23T19:32:54.351Z,19.69
2019-05-23T19:35:26.782Z,19.60
2019-05-23T19:37:59.245Z,19.51
2019-05-23T19:40:31.472Z,19.43
2019-05-23T19:43:03.710Z,19.33
2019-05-23T19:45:36.326Z,19.24
2019-05-23T19:48:08.545Z,19.17
2019-05-23T19:50:40.795Z,19.10
2019-05-23T19:53:13.325Z,19.05
2019-05-23T19:55:45.648Z,18.98
2019-05-23T19:58:17.978Z,18.90
2019-05-23T20:00:51.591Z,18.83
2019-05-23T20:03:24.171Z,18.76
2019-05-23T20:05:56.682Z,18.71
2019-05-23T20:08:29.043Z,18.67
2019-05-23T20:11:01.442Z,18.62
2019-05-23T20:13:33.790Z,18.57
2019-05-23T20:16:06.313Z,18.50
2019-05-23T20:18:39.246Z,18.44
2019-05-23T20:21:13.575Z,18.39
2019-05-23T20:23:59.411Z,18.34
2019-05-23T20:26:34.237Z,18.28
2019-05-23T20:29:08.651Z,18.22
2019-05-23T20:31:43.555Z,18.17
2019-05-23T20:34:15.802Z,18.12
2019-05-23T20:36:48.080Z,18.09
2019-05-23T20:39:20.298Z,18.05
2019-05-23T20:41:52.587Z,18.02
2019-05-23T20:44:24.933Z,17.98
2019-05-23T20:46:57.130Z,17.95
2019-05-23T20:49:29.441Z,17.91
2019-05-23T20:52:01.836Z,17.89
2019-05-23T20:54:35.392Z,17.86
2019-05-23T20:57:07.628Z,17.84
2019-05-23T20:59:39.878Z,17.82
2019-05-23T21:02:12.179Z,17.80
2019-05-23T21:04:44.352Z,17.78
2019-05-23T21:07:16.625Z,17.77
2019-05-23T21:09:48.854Z,17.76
2019-05-23T21:12:29.890Z,17.75
2019-05-23T21:14:55.043Z,17.73
2019-05-23T21:17:27.261Z,17.70
2019-05-23T21:19:59.496Z,17.65
2019-05-23T21:22:31.715Z,17.61
2019-05-23T21:25:03.967Z,17.57
2019-05-23T21:27:36.328Z,17.54
2019-05-23T21:30:08.610Z,17.51
2019-05-23T21:32:40.932Z,17.46
2019-05-23T21:35:13.165Z,17.41
2019-05-23T21:37:46.498Z,17.39
2019-05-23T21:40:18.699Z,17.36
2019-05-23T21:42:50.749Z,17.35
2019-05-23T21:45:23.002Z,17.34
2019-05-23T21:47:55.188Z,17.32
2019-05-23T21:50:27.435Z,17.28
2019-05-23T21:52:59.651Z,17.25
2019-05-23T21:55:31.909Z,17.20
2019-05-23T21:58:04.425Z,17.15
2019-05-23T22:00:36.675Z,17.13
2019-05-23T22:03:09.331Z,17.08
2019-05-23T22:05:42.612Z,17.05
2019-05-23T22:08:16.062Z,17.03
2019-05-23T22:10:48.292Z,16.99
2019-05-23T22:13:20.587Z,16.95
2019-05-23T22:15:52.796Z,16.93
2019-05-23T22:18:25.038Z,16.90
2019-05-23T22:20:57.288Z,16.88
2019-05-23T22:23:29.505Z,16.86
2019-05-23T22:26:01.728Z,16.83
2019-05-23T22:28:33.987Z,16.81
2019-05-23T22:31:06.216Z,16.78
2019-05-23T22:33:38.451Z,16.74
2019-05-23T22:36:10.774Z,16.70
2019-05-23T22:38:42.990Z,16.66
2019-05-23T22:41:15.468Z,16.63
2019-05-23T22:43:47.768Z,16.60
2019-05-23T22:46:19.988Z,16.57
2019-05-23T22:48:52.187Z,16.54
2019-05-23T22:51:24.466Z,16.52
2019-05-23T22:53:58.933Z,16.50
2019-05-23T22:56:31.555Z,16.48
2019-05-23T22:59:04.109Z,16.46
2019-05-23T23:01:36.380Z,16.47
2019-05-23T23:04:08.589Z,16.52
2019-05-23T23:06:40.869Z,16.53
2019-05-23T23:09:13.148Z,16.53
2019-05-23T23:11:45.326Z,16.48
2019-05-23T23:14:17.536Z,16.45
2019-05-23T23:16:49.783Z,16.45
2019-05-23T23:19:22.005Z,16.47
2019-05-23T23:21:54.222Z,16.53
2019-05-23T23:24:26.476Z,16.54
2019-05-23T23:26:58.718Z,16.52
2019-05-23T23:29:31.027Z,16.49
2019-05-23T23:32:04.087Z,16.46
2019-05-23T23:34:36.401Z,16.40
2019-05-23T23:37:08.602Z,16.33
2019-05-23T23:39:40.896Z,16.27
2019-05-23T23:42:13.152Z,16.22
2019-05-23T23:44:46.306Z,16.14
2019-05-23T23:47:19.534Z,16.08
2019-05-23T23:49:51.730Z,16.01
2019-05-23T23:52:23.942Z,15.95
2019-05-23T23:54:56.201Z,15.89
2019-05-23T23:57:28.446Z,15.85
